Dublin, NH

1:57 AM EDT on July 26, 2016 (GMT -0400)
Nubanusit Neighborhood | | Change Station

Elev 820 ft 42.88 °N, 71.97 °W | Updated 7 seconds ago

Clear
Clear
74.3 °F
Feels Like 75 °F
N
0.2
Wind Variable Wind from WSW
Gusts 2.5 mph

Today
High -- | Low -- °F
--% Chance of Precip.
Yesterday
High -- | Low -- °F
Precip. -- in
Pressure 29.81 in
Visibility 10.0 miles
Clouds Clear
Heat Index 75 °F
Dew Point 67 °F
Humidity 78%
Rainfall 0.00 in
Snow Depth Not available.
5:33 AM 8:15 PM
Waning Gibbous, 58% visible
METAR KAFN 260552Z AUTO 22003KT 10SM CLR 23/19 A2982 RMK AO2 SLP094 T02280189 10283 20228 58008
Pressure 29.81 in
Visibility 10.0 miles
Clouds Clear
Heat Index 75 °F
Dew Point 67 °F
Humidity 78%
Rainfall 0.00 in
Snow Depth Not available.
5:33 AM 8:15 PM
Waning Gibbous, 58% visible
METAR KAFN 260552Z AUTO 22003KT 10SM CLR 23/19 A2982 RMK AO2 SLP094 T02280189 10283 20228 58008

10-Day Weather Forecast

Almanac

Astronomy

Jul. 26, 2016 Rise Set
Actual Time
Civil Twilight
Nautical Twilight
Astronomical Twilight
Moon
Length of Visible Light
Length of Day
Tomorrow will be .
, % of the Moon is Illuminated

Today's Extremes

State Highs State Lows

Community

WunderPhotos

Upload Photos

1,927,547 photos uploaded!

WunderBlog® & News

Nearby

Air Quality

  Air Quality AQ Index Pollutant
Not available.

Snow Depth

Station Depth Elevation

Earthquake Activity

City Distance Mag. Time & Date
Minimum magnitude displayed is 2.5.

Coastal Water Temperatures

Place Temperature

Stations

Nearby Weather Stations

Station Location Temp. Windchill Dew Point Humidity Wind Precip. Elev Updated Type
                   

Watches & Warnings

There are currently no watches in effect.